Time;durP1;ratioP1;P1;durP2;ratioP2;P2;SDS_P1;SDS_P2;PMS_P1;PMS_P2;Temp;Humidity;BMP_temperature;BMP_pressure;BME280_temperature;BME280_humidity;BME280_pressure;Samples;Min_cycle;Max_cycle;Signal;HPM_P1;HPM_P2
2023/10/03 00:02:05;;;;;;;12.27;6.13;;;13.50;99.90;;;;;;5015978;28;20170;-81
2023/10/03 00:04:31;;;;;;;11.20;6.20;;;13.50;99.90;;;;;;5016175;28;20206;-82
2023/10/03 00:06:57;;;;;;;9.53;5.77;;;13.50;99.90;;;;;;5033684;28;20190;-83
2023/10/03 00:09:23;;;;;;;12.37;6.70;;;13.40;99.90;;;;;;5016303;28;20174;-81
2023/10/03 00:11:49;;;;;;;12.43;6.03;;;13.50;99.90;;;;;;5033776;28;20177;-82
2023/10/03 00:14:15;;;;;;;12.30;5.97;;;13.50;99.90;;;;;;5016156;28;20170;-83
2023/10/03 00:16:41;;;;;;;12.47;6.37;;;13.50;99.90;;;;;;5033629;28;20224;-82
2023/10/03 00:19:07;;;;;;;12.37;6.30;;;13.60;99.90;;;;;;5033288;28;20566;-81
2023/10/03 00:21:33;;;;;;;12.70;6.50;;;13.60;99.90;;;;;;5032995;28;20182;-81
2023/10/03 00:24:01;;;;;;;11.77;6.13;;;13.60;99.90;;;;;;5033466;28;20194;-82
2023/10/03 00:26:28;;;;;;;10.53;5.93;;;13.70;99.90;;;;;;5033603;28;20199;-81
2023/10/03 00:28:56;;;;;;;11.20;6.37;;;13.70;99.90;;;;;;5015781;28;20646;-81
2023/10/03 00:31:22;;;;;;;9.67;5.83;;;13.80;99.90;;;;;;5015456;28;20612;-81
2023/10/03 00:33:48;;;;;;;10.93;5.90;;;13.80;99.90;;;;;;5033027;28;20696;-82
2023/10/03 00:36:22;;;;;;;11.50;5.87;;;13.80;99.90;;;;;;5015486;28;20198;-82
2023/10/03 00:38:47;;;;;;;13.00;6.10;;;13.80;99.90;;;;;;5015620;28;20196;-82
2023/10/03 00:41:13;;;;;;;9.93;5.80;;;13.70;99.90;;;;;;5015471;28;20269;-81
2023/10/03 00:43:56;;;;;;;12.33;5.83;;;13.70;99.90;;;;;;5015664;28;20198;-82
2023/10/03 00:46:22;;;;;;;13.07;5.80;;;13.60;99.90;;;;;;5033507;28;20218;-84
2023/10/03 00:48:47;;;;;;;11.43;6.10;;;13.70;99.90;;;;;;5032485;28;20178;-81
2023/10/03 00:51:14;;;;;;;8.60;5.00;;;13.50;99.90;;;;;;5032895;28;20170;-81
2023/10/03 00:53:40;;;;;;;11.00;6.03;;;13.40;99.90;;;;;;5015184;28;20185;-84
2023/10/03 00:56:11;;;;;;;10.80;6.10;;;13.40;99.90;;;;;;5015162;28;20204;-83
2023/10/03 00:58:37;;;;;;;13.57;6.73;;;13.30;99.90;;;;;;5032924;28;20178;-82
2023/10/03 01:01:03;;;;;;;14.10;6.77;;;13.30;99.90;;;;;;5032828;28;20202;-82
2023/10/03 01:03:31;;;;;;;12.90;6.70;;;13.40;99.90;;;;;;5015142;28;20587;-81
2023/10/03 01:06:05;;;;;;;12.37;6.07;;;13.50;99.90;;;;;;5015006;28;20198;-82
2023/10/03 01:08:32;;;;;;;10.23;6.30;;;13.60;99.90;;;;;;5033011;28;20237;-82
2023/10/03 01:11:02;;;;;;;11.27;6.23;;;13.60;99.90;;;;;;5014821;28;20205;-81
2023/10/03 01:13:29;;;;;;;12.77;6.60;;;13.70;99.90;;;;;;5033179;28;20257;-81
2023/10/03 01:15:55;;;;;;;12.17;6.23;;;13.70;99.90;;;;;;5015244;28;20293;-82
2023/10/03 01:18:26;;;;;;;12.53;5.90;;;13.70;99.90;;;;;;5032795;28;20190;-82
2023/10/03 01:20:55;;;;;;;13.40;6.53;;;13.60;99.90;;;;;;5015121;28;20248;-81
2023/10/03 01:23:21;;;;;;;11.03;6.17;;;13.60;99.90;;;;;;5014783;28;20746;-82
2023/10/03 01:25:48;;;;;;;15.40;6.67;;;13.70;99.90;;;;;;5032787;28;20186;-82
2023/10/03 01:28:14;;;;;;;12.57;6.10;;;13.70;99.90;;;;;;5032524;28;20572;-81
2023/10/03 01:30:41;;;;;;;11.50;6.17;;;13.70;99.90;;;;;;5032756;28;20179;-80
2023/10/03 01:33:07;;;;;;;12.03;6.30;;;13.60;99.90;;;;;;5032758;28;20651;-81
2023/10/03 01:35:33;;;;;;;9.50;5.83;;;13.50;99.90;;;;;;5033220;28;20195;-82
2023/10/03 01:37:59;;;;;;;12.03;5.90;;;13.50;99.90;;;;;;5032640;28;20174;-83
2023/10/03 01:40:26;;;;;;;14.13;6.80;;;13.50;99.90;;;;;;5032645;28;20174;-83
2023/10/03 01:42:52;;;;;;;12.33;6.17;;;13.60;99.90;;;;;;5014638;28;20202;-81
2023/10/03 01:45:26;;;;;;;14.87;7.23;;;13.60;99.90;;;;;;5032506;28;20182;-82
2023/10/03 01:47:53;;;;;;;18.17;8.13;;;13.70;99.90;;;;;;5032728;28;20174;-81
2023/10/03 01:50:20;;;;;;;14.03;7.13;;;13.70;99.90;;;;;;5032540;28;20170;-82
2023/10/03 01:52:49;;;;;;;21.90;9.63;;;13.80;99.90;;;;;;5014619;28;20681;-83
2023/10/03 01:55:20;;;;;;;17.60;7.93;;;14.10;99.90;;;;;;5032218;28;20522;-81
2023/10/03 01:57:47;;;;;;;15.77;8.13;;;14.20;99.90;;;;;;5014931;28;20185;-81
2023/10/03 02:00:24;;;;;;;15.23;6.93;;;14.20;99.90;;;;;;5014832;28;20170;-81
2023/10/03 02:02:57;;;;;;;10.60;6.03;;;14.00;99.90;;;;;;5017820;28;20213;-82
2023/10/03 02:05:25;;;;;;;15.23;7.17;;;13.80;99.90;;;;;;5018079;28;20178;-82
2023/10/03 02:08:15;;;;;;;12.30;6.10;;;13.60;99.90;;;;;;5035858;28;20166;-82
2023/10/03 02:10:40;;;;;;;10.63;6.20;;;13.50;99.90;;;;;;5035279;28;20181;-81
2023/10/03 02:13:10;;;;;;;13.83;6.30;;;13.50;99.90;;;;;;5036215;28;20174;-81
2023/10/03 02:15:38;;;;;;;13.03;6.50;;;13.40;99.90;;;;;;5017831;28;20289;-81
2023/10/03 02:18:12;;;;;;;12.30;6.63;;;13.50;99.90;;;;;;5017956;28;20170;-81
2023/10/03 02:20:47;;;;;;;12.20;6.67;;;13.40;99.90;;;;;;5036165;28;20694;-84
2023/10/03 02:23:17;;;;;;;17.20;7.03;;;13.40;99.90;;;;;;5035939;28;20211;-82
2023/10/03 02:25:44;;;;;;;13.87;7.20;;;13.50;99.90;;;;;;5017989;28;20199;-81
2023/10/03 02:28:10;;;;;;;15.10;7.30;;;13.50;99.90;;;;;;5035950;28;20170;-82
2023/10/03 02:30:36;;;;;;;13.63;7.73;;;13.50;99.90;;;;;;5035239;28;20182;-81
2023/10/03 02:33:12;;;;;;;18.83;8.93;;;13.50;99.90;;;;;;5017239;28;20177;-81
2023/10/03 02:35:39;;;;;;;19.10;9.00;;;14.00;99.90;;;;;;5017750;28;20197;-81
2023/10/03 02:38:10;;;;;;;19.70;9.13;;;14.50;99.90;;;;;;5017498;28;20222;-82
2023/10/03 02:40:35;;;;;;;17.63;8.83;;;14.90;99.90;;;;;;5017478;28;20174;-81
2023/10/03 02:43:01;;;;;;;19.57;8.80;;;15.20;99.90;;;;;;5034995;28;20225;-82
2023/10/03 02:45:27;;;;;;;18.80;9.20;;;15.60;99.90;;;;;;5034894;28;20167;-81
2023/10/03 02:48:08;;;;;;;19.50;8.80;;;16.10;99.90;;;;;;5035313;28;20298;-82
2023/10/03 02:50:34;;;;;;;17.33;8.73;;;16.40;99.90;;;;;;5035096;28;20220;-82
2023/10/03 02:53:04;;;;;;;18.00;8.83;;;16.80;45.70;;;;;;5035149;28;20730;-81
2023/10/03 02:55:29;;;;;;;17.00;8.60;;;16.90;27.80;;;;;;5035162;28;20248;-81
2023/10/03 02:57:55;;;;;;;16.30;8.43;;;16.90;12.70;;;;;;5016737;28;20182;-85
2023/10/03 03:00:21;;;;;;;16.60;8.57;;;17.00;1.00;;;;;;5034946;28;20663;-82
2023/10/03 03:02:47;;;;;;;16.13;8.20;;;17.30;1.00;;;;;;5034752;28;20256;-81
2023/10/03 03:05:17;;;;;;;15.33;8.37;;;17.40;1.00;;;;;;5017455;28;20171;-81
2023/10/03 03:07:57;;;;;;;18.37;7.70;;;17.50;1.00;;;;;;5016841;28;20175;-81
2023/10/03 03:10:24;;;;;;;15.17;7.67;;;17.80;99.90;;;;;;5034843;28;20166;-81
2023/10/03 03:12:49;;;;;;;14.50;7.50;;;17.90;99.90;;;;;;5034391;28;20197;-84
2023/10/03 03:15:23;;;;;;;14.97;7.40;;;18.00;99.90;;;;;;5016888;28;20254;-82
2023/10/03 03:17:50;;;;;;;13.20;7.53;;;17.80;99.90;;;;;;5035355;28;20183;-82
2023/10/03 03:20:21;;;;;;;14.67;8.10;;;17.80;99.90;;;;;;5034902;28;20253;-81
2023/10/03 03:22:48;;;;;;;17.77;7.97;;;17.80;99.90;;;;;;5016550;28;20204;-82
2023/10/03 03:28:02;;;;;;;14.10;7.57;;;17.80;99.90;;;;;;5034607;28;20213;-81
2023/10/03 03:32:54;;;;;;;13.63;7.43;;;17.90;1.00;;;;;;5034593;28;20332;-81
2023/10/03 03:35:23;;;;;;;11.80;7.43;;;18.00;99.90;;;;;;5016316;28;20181;-82
2023/10/03 03:37:48;;;;;;;14.10;7.57;;;18.10;59.10;;;;;;5034462;28;20171;-84
2023/10/03 03:40:29;;;;;;;11.87;6.80;;;18.00;99.90;;;;;;5016415;28;20182;-81
2023/10/03 03:42:58;;;;;;;16.67;7.60;;;18.10;99.90;;;;;;5016306;28;20352;-81
2023/10/03 03:45:27;;;;;;;13.00;7.40;;;18.10;1.00;;;;;;5034138;28;20250;-82
2023/10/03 03:47:55;;;;;;;14.53;7.50;;;18.00;1.00;;;;;;5033916;28;20174;-85
2023/10/03 03:50:22;;;;;;;13.07;7.53;;;18.10;99.90;;;;;;5034182;28;20590;-82
2023/10/03 03:52:51;;;;;;;15.13;7.40;;;18.10;99.90;;;;;;5016094;28;20537;-82
2023/10/03 03:55:17;;;;;;;12.90;7.40;;;18.10;99.90;;;;;;5015987;28;20270;-83
2023/10/03 03:57:46;;;;;;;13.37;6.73;;;18.10;1.00;;;;;;5016266;28;20178;-82
2023/10/03 04:00:18;;;;;;;14.80;7.40;;;18.00;1.00;;;;;;5016336;28;20178;-81
2023/10/03 04:02:43;;;;;;;13.43;7.17;;;18.10;99.90;;;;;;5015608;28;20604;-82
2023/10/03 04:05:12;;;;;;;13.33;6.80;;;18.20;1.00;;;;;;5034309;28;20174;-85
2023/10/03 04:07:38;;;;;;;15.10;7.07;;;18.10;1.00;;;;;;5016149;28;20261;-82
2023/10/03 04:10:09;;;;;;;13.63;6.70;;;18.10;1.00;;;;;;5015803;28;20194;-82
2023/10/03 04:12:41;;;;;;;13.90;7.10;;;18.10;1.00;;;;;;5015617;28;20174;-81
2023/10/03 04:15:12;;;;;;;15.73;7.47;;;18.10;99.90;;;;;;5033461;28;20177;-82
2023/10/03 04:17:38;;;;;;;15.33;7.43;;;18.00;1.00;;;;;;5015992;28;20166;-83
2023/10/03 04:20:18;;;;;;;14.50;7.40;;;17.90;1.00;;;;;;5016003;28;20213;-82
2023/10/03 04:22:46;;;;;;;12.40;6.93;;;18.00;1.00;;;;;;5015407;28;20583;-82
2023/10/03 04:25:13;;;;;;;13.77;7.53;;;18.00;1.00;;;;;;5032836;28;20170;-82
2023/10/03 04:27:40;;;;;;;14.17;6.90;;;18.00;1.00;;;;;;5033620;28;20175;-82
2023/10/03 04:30:09;;;;;;;12.63;7.37;;;18.00;1.00;;;;;;5015670;28;20185;-81
2023/10/03 04:32:34;;;;;;;12.53;6.87;;;18.10;99.90;;;;;;5033321;28;20261;-82
2023/10/03 04:35:00;;;;;;;12.17;7.37;;;18.10;99.90;;;;;;5015799;28;20253;-84
2023/10/03 04:37:26;;;;;;;13.47;7.47;;;18.10;99.90;;;;;;5015483;28;20284;-83
2023/10/03 04:39:51;;;;;;;13.23;7.23;;;18.00;99.90;;;;;;5033278;28;20205;-82
2023/10/03 04:42:17;;;;;;;14.17;7.37;;;17.90;1.00;;;;;;5033433;28;20174;-82
2023/10/03 04:44:43;;;;;;;12.70;7.67;;;17.90;1.00;;;;;;5015508;28;20205;-82
2023/10/03 04:47:11;;;;;;;13.53;7.40;;;17.90;1.00;;;;;;5032881;28;20714;-82
2023/10/03 04:49:38;;;;;;;15.73;7.87;;;17.90;1.00;;;;;;5033359;28;20620;-82
2023/10/03 04:52:07;;;;;;;14.20;7.93;;;17.90;1.00;;;;;;5032710;28;20200;-82
2023/10/03 04:54:33;;;;;;;15.53;8.13;;;17.80;1.00;;;;;;5033250;28;20206;-82
2023/10/03 04:56:59;;;;;;;12.93;7.30;;;17.90;1.00;;;;;;5015235;28;20225;-81
2023/10/03 04:59:25;;;;;;;14.73;7.07;;;17.80;1.00;;;;;;5033309;28;20216;-82
2023/10/03 05:01:50;;;;;;;13.23;6.83;;;17.80;1.00;;;;;;5015098;28;20174;-82
2023/10/03 05:04:16;;;;;;;12.40;6.93;;;17.90;1.00;;;;;;5032861;28;20209;-81
2023/10/03 05:06:43;;;;;;;12.93;7.00;;;17.90;99.90;;;;;;5032775;28;20194;-82
2023/10/03 05:09:09;;;;;;;15.53;7.40;;;17.90;99.90;;;;;;5015070;28;20178;-82
2023/10/03 05:11:34;;;;;;;15.37;7.60;;;18.00;99.90;;;;;;5015088;28;20178;-83
2023/10/03 05:14:00;;;;;;;13.07;7.07;;;18.00;1.00;;;;;;5015392;28;20174;-83
2023/10/03 05:16:26;;;;;;;13.47;7.10;;;18.00;99.90;;;;;;5032630;28;20194;-83
2023/10/03 05:18:52;;;;;;;12.63;6.67;;;18.00;1.00;;;;;;5032694;28;20261;-83
2023/10/03 05:21:17;;;;;;;12.83;7.13;;;18.00;1.00;;;;;;5014583;28;20178;-83
2023/10/03 05:23:43;;;;;;;14.70;7.43;;;18.00;74.10;;;;;;5033396;28;20198;-86
2023/10/03 05:26:08;;;;;;;14.50;7.23;;;18.00;99.90;;;;;;5015063;28;20222;-83
2023/10/03 05:28:37;;;;;;;12.93;6.53;;;17.90;1.00;;;;;;5015919;28;20167;-81
2023/10/03 05:31:03;;;;;;;12.70;6.80;;;17.80;1.00;;;;;;5032026;28;20169;-82
2023/10/03 05:33:29;;;;;;;11.53;6.83;;;17.90;99.90;;;;;;5014539;28;20262;-82
2023/10/03 05:35:54;;;;;;;13.10;7.60;;;17.90;99.90;;;;;;5016645;28;20198;-82
2023/10/03 05:38:20;;;;;;;11.43;7.03;;;17.80;1.00;;;;;;5018169;28;20178;-83
2023/10/03 05:40:47;;;;;;;16.40;7.43;;;17.80;1.00;;;;;;5018417;28;20178;-83
2023/10/03 05:43:12;;;;;;;13.73;7.40;;;17.70;40.70;;;;;;5018711;28;20201;-84
2023/10/03 05:45:39;;;;;;;13.60;6.87;;;17.70;99.90;;;;;;5035817;28;20210;-87
2023/10/03 05:48:05;;;;;;;12.97;7.60;;;17.80;99.90;;;;;;5035397;28;20170;-86
2023/10/03 05:50:31;;;;;;;11.93;6.97;;;17.70;1.00;;;;;;5017424;28;20177;-89
2023/10/03 05:52:57;;;;;;;12.90;7.37;;;17.60;99.90;;;;;;5036777;28;20244;-83
2023/10/03 05:55:22;;;;;;;14.77;7.50;;;17.50;95.30;;;;;;5019968;28;20179;-84
2023/10/03 05:57:48;;;;;;;12.80;7.10;;;17.40;99.90;;;;;;5037921;28;20182;-84
2023/10/03 06:00:18;;;;;;;12.30;7.30;;;17.50;1.00;;;;;;5018541;28;20713;-82
2023/10/03 06:02:47;;;;;;;12.07;7.27;;;17.40;1.00;;;;;;5016908;28;20182;-83
2023/10/03 06:05:13;;;;;;;12.37;7.00;;;17.50;99.90;;;;;;5017755;28;20242;-83
2023/10/03 06:07:41;;;;;;;12.87;7.70;;;17.40;99.90;;;;;;5018162;28;20183;-83
2023/10/03 06:10:10;;;;;;;12.37;7.00;;;17.40;21.70;;;;;;5031368;28;20190;-82
2023/10/03 06:12:36;;;;;;;13.23;7.10;;;17.40;1.00;;;;;;5018306;28;20206;-82
2023/10/03 06:15:04;;;;;;;12.60;7.17;;;17.40;99.90;;;;;;5017268;28;20581;-81
2023/10/03 06:17:31;;;;;;;12.97;7.27;;;17.40;1.00;;;;;;5017341;28;20194;-82
2023/10/03 06:19:57;;;;;;;13.00;7.03;;;17.40;1.00;;;;;;5034832;28;20210;-82
2023/10/03 06:22:22;;;;;;;15.07;8.07;;;17.40;1.00;;;;;;5016745;28;20210;-82
2023/10/03 06:24:49;;;;;;;13.67;7.30;;;17.40;1.00;;;;;;5034927;28;20252;-81
2023/10/03 06:27:14;;;;;;;14.23;7.80;;;17.50;99.90;;;;;;5017101;28;20213;-81
2023/10/03 06:29:41;;;;;;;16.13;7.10;;;17.50;99.90;;;;;;5033589;28;20170;-82
2023/10/03 06:32:07;;;;;;;15.07;7.80;;;17.50;99.90;;;;;;5023828;28;20655;-82
2023/10/03 06:34:33;;;;;;;14.43;7.57;;;17.50;99.90;;;;;;5026703;28;20244;-81
2023/10/03 06:36:59;;;;;;;17.13;7.70;;;17.50;99.90;;;;;;5017143;28;20293;-82
2023/10/03 06:39:24;;;;;;;14.57;8.30;;;17.50;99.90;;;;;;5035624;28;20257;-83
2023/10/03 06:41:55;;;;;;;12.63;7.40;;;17.50;1.00;;;;;;5034678;28;20221;-83
2023/10/03 06:44:21;;;;;;;14.63;8.00;;;17.50;1.00;;;;;;5035533;28;20198;-84
2023/10/03 06:46:46;;;;;;;12.27;6.77;;;17.50;1.00;;;;;;5017106;28;20209;-82
2023/10/03 06:49:13;;;;;;;12.50;6.97;;;17.70;1.00;;;;;;5035010;28;20233;-83
2023/10/03 06:51:39;;;;;;;12.90;7.40;;;17.70;99.90;;;;;;5034347;28;20261;-82
2023/10/03 06:54:05;;;;;;;12.83;7.20;;;17.90;1.00;;;;;;5016648;28;20250;-83
2023/10/03 06:56:32;;;;;;;13.10;7.30;;;18.00;41.10;;;;;;5016666;28;20203;-82
2023/10/03 06:58:59;;;;;;;12.27;6.90;;;18.10;1.00;;;;;;5015109;28;20269;-81
2023/10/03 07:01:25;;;;;;;12.93;7.60;;;18.20;1.00;;;;;;5015567;28;20183;-81
2023/10/03 07:03:53;;;;;;;12.73;6.77;;;18.20;1.00;;;;;;5011362;28;20666;-81
2023/10/03 07:06:19;;;;;;;10.87;6.87;;;18.30;1.00;;;;;;5033879;28;20257;-81
2023/10/03 07:08:44;;;;;;;13.67;6.97;;;18.40;99.90;;;;;;5033796;28;20210;-82
2023/10/03 07:11:12;;;;;;;10.53;6.70;;;18.50;46.90;;;;;;5034168;28;20202;-82
2023/10/03 07:13:38;;;;;;;11.53;6.40;;;18.70;99.90;;;;;;5032680;28;20292;-82
2023/10/03 07:16:03;;;;;;;12.97;6.57;;;18.70;99.90;;;;;;5015948;28;20644;-82
2023/10/03 07:18:29;;;;;;;11.70;6.03;;;18.70;1.00;;;;;;5033916;28;20206;-81
2023/10/03 07:20:55;;;;;;;11.70;6.43;;;18.70;99.90;;;;;;5033940;28;20269;-81
2023/10/03 07:23:21;;;;;;;11.10;6.60;;;18.80;1.00;;;;;;5032438;28;20205;-79
2023/10/03 07:25:47;;;;;;;11.67;6.23;;;18.90;99.90;;;;;;5015832;28;20729;-81
2023/10/03 07:28:14;;;;;;;14.93;6.90;;;18.90;3.20;;;;;;5033924;28;20186;-80
2023/10/03 07:30:41;;;;;;;11.85;6.57;;;18.90;99.90;;;;;;5033483;28;20583;-77
2023/10/03 07:33:08;;;;;;;11.57;6.03;;;18.90;99.90;;;;;;5034081;28;20186;-81
2023/10/03 07:35:37;;;;;;;11.80;6.40;;;18.90;1.00;;;;;;5016063;28;20198;-80
2023/10/03 07:38:03;;;;;;;12.73;6.32;;;19.00;1.00;;;;;;5016046;28;20597;-80
2023/10/03 07:40:28;;;;;;;10.15;5.72;;;19.10;99.90;;;;;;5033778;28;20724;-80
2023/10/03 07:42:54;;;;;;;9.80;6.28;;;19.20;99.90;;;;;;5033724;28;20174;-81
2023/10/03 07:45:19;;;;;;;9.68;6.28;;;19.20;1.00;;;;;;5033579;28;20185;-80
2023/10/03 07:47:46;;;;;;;10.57;6.18;;;19.20;1.00;;;;;;5032276;28;20220;-80
2023/10/03 07:50:13;;;;;;;9.27;5.93;;;19.30;99.90;;;;;;5033659;28;20182;-82
2023/10/03 07:52:39;;;;;;;7.97;5.55;;;19.40;1.00;;;;;;5033402;28;20197;-80
2023/10/03 07:55:05;;;;;;;9.85;6.32;;;19.40;99.90;;;;;;5032081;28;20179;-81
2023/10/03 07:57:31;;;;;;;9.95;6.30;;;19.40;1.00;;;;;;5033711;28;20244;-81
2023/10/03 07:59:56;;;;;;;10.65;6.20;;;19.40;99.90;;;;;;5032042;28;20182;-80
2023/10/03 08:02:31;;;;;;;10.65;6.07;;;19.40;1.00;;;;;;5031993;28;20561;-81
2023/10/03 08:05:00;;;;;;;8.90;5.78;;;19.40;99.90;;;;;;5015525;28;20244;-81
2023/10/03 08:07:29;;;;;;;9.65;6.45;;;19.40;82.40;;;;;;5015453;28;20190;-81
2023/10/03 08:09:55;;;;;;;11.40;6.35;;;19.40;99.90;;;;;;5033278;28;20174;-81
2023/10/03 08:12:24;;;;;;;11.50;6.47;;;19.40;1.00;;;;;;5032068;28;20669;-81
2023/10/03 08:14:53;;;;;;;9.85;6.18;;;19.40;99.90;;;;;;5033133;28;20213;-80
2023/10/03 08:17:27;;;;;;;9.18;5.75;;;19.50;99.90;;;;;;5031484;28;20202;-80
2023/10/03 08:19:52;;;;;;;12.27;6.60;;;19.50;99.90;;;;;;5033169;28;20195;-81
2023/10/03 08:22:20;;;;;;;9.75;5.88;;;19.50;69.20;;;;;;5031846;28;20202;-80
2023/10/03 08:24:46;;;;;;;9.15;5.65;;;19.50;99.90;;;;;;5031519;28;20292;-80
2023/10/03 08:27:21;;;;;;;11.93;6.25;;;19.50;1.00;;;;;;5015507;28;20236;-80
2023/10/03 08:29:51;;;;;;;9.20;6.10;;;19.50;1.00;;;;;;5033008;28;20163;-80
2023/10/03 08:32:17;;;;;;;10.45;5.97;;;19.50;99.90;;;;;;5031355;28;20718;-81
2023/10/03 08:34:44;;;;;;;9.60;5.75;;;19.50;28.50;;;;;;5032708;28;20209;-80
2023/10/03 08:37:18;;;;;;;12.23;6.03;;;19.50;99.90;;;;;;5033041;28;20198;-80
2023/10/03 08:39:46;;;;;;;10.07;6.10;;;19.60;99.90;;;;;;5032890;28;20205;-80
2023/10/03 08:42:34;;;;;;;9.95;5.60;;;19.60;1.00;;;;;;5032855;28;20187;-80
2023/10/03 08:45:16;;;;;;;9.07;5.82;;;19.70;1.00;;;;;;5031485;28;20201;-80
2023/10/03 08:47:47;;;;;;;10.27;6.03;;;19.70;99.90;;;;;;5032766;28;20185;-80
2023/10/03 08:50:29;;;;;;;10.52;5.65;;;19.70;99.90;;;;;;5032877;28;20249;-80
2023/10/03 08:52:56;;;;;;;9.48;5.70;;;19.70;7.30;;;;;;5032473;28;20178;-80
2023/10/03 08:55:26;;;;;;;10.43;5.45;;;19.80;99.90;;;;;;5032552;28;20167;-80
2023/10/03 08:57:52;;;;;;;8.10;5.40;;;19.80;99.90;;;;;;5033144;28;20209;-80
2023/10/03 09:00:25;;;;;;;9.23;5.93;;;19.80;1.00;;;;;;5032699;28;20167;-80
2023/10/03 09:02:59;;;;;;;11.15;6.05;;;19.80;1.00;;;;;;5031281;28;20174;-80
2023/10/03 09:05:25;;;;;;;8.90;5.10;;;19.80;99.90;;;;;;5032616;28;20650;-80
2023/10/03 09:07:55;;;;;;;9.70;5.75;;;19.90;99.90;;;;;;5032514;28;20177;-80
2023/10/03 09:10:24;;;;;;;10.00;5.70;;;19.90;1.00;;;;;;5016271;28;20198;-81
2023/10/03 09:13:04;;;;;;;9.77;5.13;;;19.90;24.60;;;;;;5036481;28;20702;-80
2023/10/03 09:15:42;;;;;;;9.02;5.38;;;19.90;1.00;;;;;;5035314;28;20216;-82
2023/10/03 09:18:15;;;;;;;8.38;5.30;;;19.90;1.00;;;;;;5036956;28;20173;-81
2023/10/03 09:20:42;;;;;;;6.85;5.47;;;19.90;1.00;;;;;;5034945;28;20181;-78
2023/10/03 09:23:09;;;;;;;9.70;5.72;;;19.90;99.90;;;;;;5036387;28;20198;-80
2023/10/03 09:25:38;;;;;;;8.00;4.97;;;20.00;99.90;;;;;;5036190;28;20209;-81
2023/10/03 09:28:05;;;;;;;7.07;5.47;;;20.00;99.90;;;;;;5036048;28;20173;-81
2023/10/03 09:30:37;;;;;;;9.52;5.45;;;20.00;1.00;;;;;;5036484;28;20615;-78
2023/10/03 09:33:11;;;;;;;7.97;5.25;;;19.90;1.00;;;;;;5036143;28;20166;-80
2023/10/03 09:35:40;;;;;;;8.65;5.40;;;20.00;1.00;;;;;;5036508;28;20198;-80
2023/10/03 09:38:17;;;;;;;7.43;5.28;;;20.00;3.00;;;;;;5036038;28;20178;-80
2023/10/03 09:40:50;;;;;;;11.52;5.50;;;20.10;1.00;;;;;;5018155;28;20204;-80
2023/10/03 09:43:19;;;;;;;9.38;5.30;;;20.00;1.00;;;;;;5035885;28;20194;-80
2023/10/03 09:45:55;;;;;;;10.82;6.20;;;20.10;26.50;;;;;;5035896;28;20206;-80
2023/10/03 09:48:24;;;;;;;7.65;5.38;;;20.10;99.90;;;;;;5018183;28;20170;-80
2023/10/03 09:50:55;;;;;;;6.88;4.97;;;20.10;1.00;;;;;;5035668;28;20209;-80
2023/10/03 09:53:27;;;;;;;7.00;5.30;;;20.10;1.00;;;;;;5036187;28;20650;-82
2023/10/03 09:55:55;;;;;;;9.98;5.45;;;20.10;1.00;;;;;;5035646;28;20674;-80
2023/10/03 09:58:25;;;;;;;9.65;5.78;;;20.10;1.00;;;;;;5035967;28;20188;-80
2023/10/03 10:00:55;;;;;;;8.25;5.57;;;20.10;99.90;;;;;;5034820;28;20181;-80
2023/10/03 10:03:27;;;;;;;9.30;4.82;;;20.10;1.00;;;;;;5035883;28;20225;-80
2023/10/03 10:06:12;;;;;;;8.70;5.32;;;20.30;1.00;;;;;;5035884;28;20187;-80
2023/10/03 10:09:13;;;;;;;8.25;5.63;;;20.30;1.00;;;;;;5035318;28;20208;-80
2023/10/03 10:12:18;;;;;;;6.70;5.28;;;20.30;99.90;;;;;;5035924;28;20159;-81
2023/10/03 10:17:52;;;;;;;7.88;5.15;;;20.20;99.90;;;;;;5035334;28;20177;-80
2023/10/03 10:20:21;;;;;;;6.82;5.30;;;20.20;1.00;;;;;;5017547;28;20181;-80
2023/10/03 10:23:01;;;;;;;7.70;5.22;;;20.30;99.90;;;;;;5034128;28;20170;-81
2023/10/03 10:25:37;;;;;;;7.80;5.43;;;20.30;99.90;;;;;;5017466;28;20177;-80
2023/10/03 10:28:07;;;;;;;8.95;5.50;;;20.20;1.00;;;;;;5017570;28;20178;-81
2023/10/03 10:30:34;;;;;;;9.43;5.10;;;20.10;1.00;;;;;;5017651;28;20177;-80
2023/10/03 10:33:14;;;;;;;7.22;5.22;;;20.00;99.10;;;;;;5017376;28;20190;-81
2023/10/03 10:35:49;;;;;;;7.82;5.65;;;20.00;1.00;;;;;;5035417;28;20201;-81
2023/10/03 10:38:15;;;;;;;9.38;5.65;;;20.10;99.90;;;;;;5017558;28;20170;-80
2023/10/03 10:41:27;;;;;;;;;;;;;;;;;;;;;
2023/10/03 10:44:13;;;;;;;8.40;5.38;;;20.20;1.00;;;;;;5034870;28;20343;-81
2023/10/03 10:46:44;;;;;;;6.50;5.25;;;20.10;99.90;;;;;;5034788;28;20340;-80
2023/10/03 10:49:41;;;;;;;8.85;5.38;;;20.10;1.00;;;;;;5034896;28;20174;-80
2023/10/03 10:52:09;;;;;;;6.50;4.90;;;20.30;99.90;;;;;;5034642;28;20221;-81
2023/10/03 10:54:39;;;;;;;7.35;5.63;;;20.40;99.90;;;;;;5016767;28;20203;-81
2023/10/03 10:57:11;;;;;;;7.40;5.53;;;20.40;99.90;;;;;;5017102;28;20272;-80
2023/10/03 10:59:40;;;;;;;10.05;5.85;;;20.50;1.00;;;;;;5034669;28;20179;-80
2023/10/03 11:02:18;;;;;;;9.77;5.75;;;20.50;99.40;;;;;;5017127;28;20183;-81
2023/10/03 11:04:45;;;;;;;7.47;5.63;;;20.50;99.90;;;;;;5016360;28;20202;-80
2023/10/03 11:07:19;;;;;;;8.20;5.43;;;20.50;1.00;;;;;;5016963;28;20197;-80
2023/10/03 11:09:45;;;;;;;7.60;5.68;;;20.50;99.90;;;;;;5016954;28;20193;-80
2023/10/03 11:12:11;;;;;;;9.18;5.63;;;20.50;1.00;;;;;;5016733;28;20567;-80
2023/10/03 11:14:36;;;;;;;7.18;5.25;;;20.50;99.90;;;;;;5034912;28;20183;-80
2023/10/03 11:17:04;;;;;;;8.43;5.72;;;20.50;1.00;;;;;;5034614;28;20252;-80
2023/10/03 11:19:32;;;;;;;7.90;5.80;;;20.60;1.00;;;;;;5016601;28;20190;-80
2023/10/03 11:21:57;;;;;;;8.60;6.07;;;20.50;1.00;;;;;;5016583;28;20178;-80
2023/10/03 11:24:24;;;;;;;8.00;5.50;;;20.50;1.00;;;;;;5034612;28;20209;-80
2023/10/03 11:26:55;;;;;;;9.38;6.07;;;20.50;1.00;;;;;;5034412;28;20201;-80
2023/10/03 11:29:45;;;;;;;8.02;5.60;;;20.60;1.00;;;;;;5034433;28;20233;-80
2023/10/03 11:32:20;;;;;;;8.43;5.40;;;20.60;1.00;;;;;;5033870;28;20201;-80
2023/10/03 11:34:48;;;;;;;8.00;5.38;;;20.70;1.00;;;;;;5016144;28;20243;-80
2023/10/03 11:37:30;;;;;;;9.95;5.72;;;20.80;1.00;;;;;;5016351;28;20194;-81
2023/10/03 11:40:10;;;;;;;10.07;5.47;;;20.90;11.40;;;;;;5016461;28;20178;-80
2023/10/03 11:43:09;;;;;;;7.53;5.43;;;21.30;99.90;;;;;;5033933;28;20592;-80
2023/10/03 11:45:36;;;;;;;9.55;5.60;;;21.60;99.90;;;;;;5034012;28;20190;-80
2023/10/03 11:48:19;;;;;;;7.00;5.35;;;21.70;1.00;;;;;;5034068;28;20178;-80
2023/10/03 11:50:45;;;;;;;9.52;5.60;;;21.70;99.90;;;;;;5033950;28;20665;-80
2023/10/03 11:53:12;;;;;;;7.60;5.68;;;21.90;99.90;;;;;;5016384;28;20186;-81
2023/10/03 11:55:40;;;;;;;8.10;4.93;;;22.10;99.90;;;;;;5016115;28;20193;-80
2023/10/03 11:58:07;;;;;;;7.03;5.18;;;22.40;99.90;;;;;;5033788;28;20605;-80
2023/10/03 12:00:34;;;;;;;7.80;5.13;;;22.60;1.00;;;;;;5015770;28;20653;-80
2023/10/03 12:02:59;;;;;;;7.60;5.10;;;22.80;1.00;;;;;;5033395;28;20669;-80
2023/10/03 12:05:27;;;;;;;7.50;5.43;;;22.90;1.00;;;;;;5016166;28;20209;-80
2023/10/03 12:07:56;;;;;;;7.32;5.10;;;22.90;1.00;;;;;;5015779;28;20174;-80
2023/10/03 12:10:24;;;;;;;7.10;5.15;;;22.90;99.90;;;;;;5033349;28;20163;-79
2023/10/03 12:12:50;;;;;;;6.28;5.15;;;23.20;99.90;;;;;;5015913;28;20181;-80
2023/10/03 12:15:16;;;;;;;9.27;4.82;;;23.30;99.90;;;;;;5033291;28;20178;-81
2023/10/03 12:17:47;;;;;;;7.35;4.38;;;23.10;1.00;;;;;;5033193;28;20635;-80
2023/10/03 12:20:15;;;;;;;7.85;4.63;;;22.80;99.90;;;;;;5016120;28;20170;-80
2023/10/03 12:22:52;;;;;;;7.68;4.60;;;22.70;99.90;;;;;;5015890;28;20635;-80
2023/10/03 12:25:21;;;;;;;7.90;5.10;;;22.60;1.00;;;;;;5033469;28;20182;-80
2023/10/03 12:27:47;;;;;;;8.25;4.95;;;22.40;1.00;;;;;;5016047;28;20179;-82
2023/10/03 12:30:15;;;;;;;6.35;4.18;;;22.40;99.90;;;;;;5033373;28;20189;-80
2023/10/03 12:32:43;;;;;;;8.52;5.10;;;22.30;1.00;;;;;;5015645;28;20170;-80
2023/10/03 12:35:10;;;;;;;7.30;5.30;;;22.20;99.90;;;;;;5033406;28;20171;-82
2023/10/03 12:37:37;;;;;;;7.75;4.90;;;21.90;1.00;;;;;;5033366;28;20205;-80
2023/10/03 12:40:13;;;;;;;7.45;5.22;;;21.80;1.00;;;;;;5033939;28;20181;-80
2023/10/03 12:42:50;;;;;;;7.68;5.13;;;21.80;1.00;;;;;;5015654;28;20224;-80
2023/10/03 12:45:17;;;;;;;8.38;5.25;;;21.80;1.00;;;;;;5032364;28;20705;-80
2023/10/03 12:47:47;;;;;;;6.85;5.40;;;21.70;99.90;;;;;;5015773;28;20281;-80
2023/10/03 12:50:25;;;;;;;7.03;4.97;;;21.60;3.30;;;;;;5033934;28;20170;-80
2023/10/03 12:52:52;;;;;;;7.30;5.00;;;21.50;33.60;;;;;;5032766;28;20173;-80
2023/10/03 12:55:18;;;;;;;7.10;5.40;;;21.50;1.00;;;;;;5032954;28;20179;-81
2023/10/03 12:57:47;;;;;;;10.63;5.07;;;21.40;99.90;;;;;;5032919;28;20173;-81
2023/10/03 13:00:19;;;;;;;8.00;5.35;;;21.40;99.90;;;;;;5015488;28;20177;-81
2023/10/03 13:02:45;;;;;;;7.70;5.60;;;21.40;1.00;;;;;;5032877;28;20174;-80
2023/10/03 13:05:12;;;;;;;6.97;5.18;;;21.50;1.00;;;;;;5032611;28;20674;-80